sensor_id;sensor_type;location;lat;lon;timestamp;temperature;humidity
2945;DHT22;1482;51.398;7.128;2024-02-26T00:01:00;6.30;1.00
2945;DHT22;1482;51.398;7.128;2024-02-26T00:03:26;6.40;1.00
2945;DHT22;1482;51.398;7.128;2024-02-26T00:05:52;6.40;1.00
2945;DHT22;1482;51.398;7.128;2024-02-26T00:08:17;6.40;1.00
2945;DHT22;1482;51.398;7.128;2024-02-26T00:10:43;6.40;1.00
2945;DHT22;1482;51.398;7.128;2024-02-26T00:13:08;6.50;1.00
2945;DHT22;1482;51.398;7.128;2024-02-26T00:15:34;6.40;1.00
2945;DHT22;1482;51.398;7.128;2024-02-26T00:18:00;6.40;1.00
2945;DHT22;1482;51.398;7.128;2024-02-26T00:20:26;6.40;1.00
2945;DHT22;1482;51.398;7.128;2024-02-26T00:22:52;6.30;1.00
2945;DHT22;1482;51.398;7.128;2024-02-26T00:25:17;6.30;1.00
2945;DHT22;1482;51.398;7.128;2024-02-26T00:27:43;6.30;3.60
2945;DHT22;1482;51.398;7.128;2024-02-26T00:30:09;6.40;2.50
2945;DHT22;1482;51.398;7.128;2024-02-26T00:32:35;6.50;4.00
2945;DHT22;1482;51.398;7.128;2024-02-26T00:35:01;6.40;2.80
2945;DHT22;1482;51.398;7.128;2024-02-26T00:37:26;6.30;3.80
2945;DHT22;1482;51.398;7.128;2024-02-26T00:39:52;6.30;1.00
2945;DHT22;1482;51.398;7.128;2024-02-26T00:42:19;6.20;2.20
2945;DHT22;1482;51.398;7.128;2024-02-26T00:44:44;6.20;6.10
2945;DHT22;1482;51.398;7.128;2024-02-26T00:47:10;6.10;9.10
2945;DHT22;1482;51.398;7.128;2024-02-26T00:49:37;6.10;10.50
2945;DHT22;1482;51.398;7.128;2024-02-26T00:52:02;6.10;12.50
2945;DHT22;1482;51.398;7.128;2024-02-26T00:54:28;5.90;10.20
2945;DHT22;1482;51.398;7.128;2024-02-26T00:56:53;6.00;13.80
2945;DHT22;1482;51.398;7.128;2024-02-26T00:59:19;6.10;11.90
2945;DHT22;1482;51.398;7.128;2024-02-26T01:01:44;6.20;17.50
2945;DHT22;1482;51.398;7.128;2024-02-26T01:04:10;6.10;18.30
2945;DHT22;1482;51.398;7.128;2024-02-26T01:06:37;6.10;14.60
2945;DHT22;1482;51.398;7.128;2024-02-26T01:09:02;6.10;14.70
2945;DHT22;1482;51.398;7.128;2024-02-26T01:11:28;6.10;9.80
2945;DHT22;1482;51.398;7.128;2024-02-26T01:13:53;6.10;10.90
2945;DHT22;1482;51.398;7.128;2024-02-26T01:16:25;6.00;10.60
2945;DHT22;1482;51.398;7.128;2024-02-26T01:18:50;6.00;8.60
2945;DHT22;1482;51.398;7.128;2024-02-26T01:21:16;6.10;10.10
2945;DHT22;1482;51.398;7.128;2024-02-26T01:23:41;6.10;9.20
2945;DHT22;1482;51.398;7.128;2024-02-26T01:26:07;6.10;7.30
2945;DHT22;1482;51.398;7.128;2024-02-26T01:28:33;6.00;2.60
2945;DHT22;1482;51.398;7.128;2024-02-26T01:30:58;6.00;4.40
2945;DHT22;1482;51.398;7.128;2024-02-26T01:33:26;6.10;3.20
2945;DHT22;1482;51.398;7.128;2024-02-26T01:35:51;6.20;1.80
2945;DHT22;1482;51.398;7.128;2024-02-26T01:38:18;6.20;1.00
2945;DHT22;1482;51.398;7.128;2024-02-26T01:40:43;6.20;1.00
2945;DHT22;1482;51.398;7.128;2024-02-26T01:43:09;6.20;1.00
2945;DHT22;1482;51.398;7.128;2024-02-26T01:45:34;6.30;1.00
2945;DHT22;1482;51.398;7.128;2024-02-26T01:48:00;6.30;1.00
2945;DHT22;1482;51.398;7.128;2024-02-26T01:50:26;6.30;1.00
2945;DHT22;1482;51.398;7.128;2024-02-26T01:52:53;6.20;1.00
2945;DHT22;1482;51.398;7.128;2024-02-26T01:55:20;6.10;1.00
2945;DHT22;1482;51.398;7.128;2024-02-26T01:57:48;6.10;1.00
2945;DHT22;1482;51.398;7.128;2024-02-26T02:00:16;6.10;1.00
2945;DHT22;1482;51.398;7.128;2024-02-26T02:02:42;6.10;1.00
2945;DHT22;1482;51.398;7.128;2024-02-26T02:05:10;6.20;1.00
2945;DHT22;1482;51.398;7.128;2024-02-26T02:07:37;6.20;1.00
2945;DHT22;1482;51.398;7.128;2024-02-26T02:10:02;6.20;1.00
2945;DHT22;1482;51.398;7.128;2024-02-26T02:12:28;6.20;1.00
2945;DHT22;1482;51.398;7.128;2024-02-26T02:14:54;6.20;1.00
2945;DHT22;1482;51.398;7.128;2024-02-26T02:17:20;6.10;1.00
2945;DHT22;1482;51.398;7.128;2024-02-26T02:19:46;6.10;1.00
2945;DHT22;1482;51.398;7.128;2024-02-26T02:22:11;6.10;1.00
2945;DHT22;1482;51.398;7.128;2024-02-26T02:24:37;6.10;1.00
2945;DHT22;1482;51.398;7.128;2024-02-26T02:27:03;6.10;1.00
2945;DHT22;1482;51.398;7.128;2024-02-26T02:29:29;6.10;1.00
2945;DHT22;1482;51.398;7.128;2024-02-26T02:31:54;6.10;1.00
2945;DHT22;1482;51.398;7.128;2024-02-26T02:34:21;6.00;1.00
2945;DHT22;1482;51.398;7.128;2024-02-26T02:36:54;6.20;1.00
2945;DHT22;1482;51.398;7.128;2024-02-26T02:39:20;6.10;1.00
2945;DHT22;1482;51.398;7.128;2024-02-26T02:41:46;6.10;1.00
2945;DHT22;1482;51.398;7.128;2024-02-26T02:44:11;6.10;6.00
2945;DHT22;1482;51.398;7.128;2024-02-26T02:46:37;6.10;1.00
2945;DHT22;1482;51.398;7.128;2024-02-26T02:49:03;6.00;1.00
2945;DHT22;1482;51.398;7.128;2024-02-26T02:51:28;6.10;1.00
2945;DHT22;1482;51.398;7.128;2024-02-26T02:53:54;6.10;1.00
2945;DHT22;1482;51.398;7.128;2024-02-26T02:56:19;6.10;1.00
2945;DHT22;1482;51.398;7.128;2024-02-26T02:58:45;6.00;1.00
2945;DHT22;1482;51.398;7.128;2024-02-26T03:01:10;6.10;2.30
2945;DHT22;1482;51.398;7.128;2024-02-26T03:03:36;6.10;2.20
2945;DHT22;1482;51.398;7.128;2024-02-26T03:06:02;6.10;4.40
2945;DHT22;1482;51.398;7.128;2024-02-26T03:08:28;6.10;7.60
2945;DHT22;1482;51.398;7.128;2024-02-26T03:10:54;6.00;10.90
2945;DHT22;1482;51.398;7.128;2024-02-26T03:13:20;5.90;18.70
2945;DHT22;1482;51.398;7.128;2024-02-26T03:15:45;5.90;22.90
2945;DHT22;1482;51.398;7.128;2024-02-26T03:18:11;5.80;26.50
2945;DHT22;1482;51.398;7.128;2024-02-26T03:20:36;5.80;37.40
2945;DHT22;1482;51.398;7.128;2024-02-26T03:23:02;5.70;45.70
2945;DHT22;1482;51.398;7.128;2024-02-26T03:25:28;5.80;53.50
2945;DHT22;1482;51.398;7.128;2024-02-26T03:27:53;5.70;64.80
2945;DHT22;1482;51.398;7.128;2024-02-26T03:30:19;5.60;84.90
2945;DHT22;1482;51.398;7.128;2024-02-26T03:32:44;5.70;90.80
2945;DHT22;1482;51.398;7.128;2024-02-26T03:35:10;5.60;96.80
2945;DHT22;1482;51.398;7.128;2024-02-26T03:37:36;5.70;99.90
2945;DHT22;1482;51.398;7.128;2024-02-26T03:40:01;5.70;99.90
2945;DHT22;1482;51.398;7.128;2024-02-26T03:42:28;5.70;99.90
2945;DHT22;1482;51.398;7.128;2024-02-26T03:44:54;5.70;99.90
2945;DHT22;1482;51.398;7.128;2024-02-26T03:47:19;5.70;99.90
2945;DHT22;1482;51.398;7.128;2024-02-26T03:49:44;5.60;99.90
2945;DHT22;1482;51.398;7.128;2024-02-26T03:52:10;5.50;99.90
2945;DHT22;1482;51.398;7.128;2024-02-26T03:54:36;5.40;99.90
2945;DHT22;1482;51.398;7.128;2024-02-26T03:57:01;5.40;99.90
2945;DHT22;1482;51.398;7.128;2024-02-26T03:59:27;5.30;99.90
2945;DHT22;1482;51.398;7.128;2024-02-26T04:01:52;5.20;99.90
2945;DHT22;1482;51.398;7.128;2024-02-26T04:04:18;5.20;99.90
2945;DHT22;1482;51.398;7.128;2024-02-26T04:06:47;5.20;99.90
2945;DHT22;1482;51.398;7.128;2024-02-26T04:09:15;5.10;99.90
2945;DHT22;1482;51.398;7.128;2024-02-26T04:11:41;5.10;99.90
2945;DHT22;1482;51.398;7.128;2024-02-26T04:14:08;5.10;99.90
2945;DHT22;1482;51.398;7.128;2024-02-26T04:16:34;5.10;99.90
2945;DHT22;1482;51.398;7.128;2024-02-26T04:19:01;5.00;99.90
2945;DHT22;1482;51.398;7.128;2024-02-26T04:21:26;5.00;99.90
2945;DHT22;1482;51.398;7.128;2024-02-26T04:23:52;5.00;99.90
2945;DHT22;1482;51.398;7.128;2024-02-26T04:26:20;5.10;99.90
2945;DHT22;1482;51.398;7.128;2024-02-26T04:28:46;5.10;99.90
2945;DHT22;1482;51.398;7.128;2024-02-26T04:31:12;5.00;99.90
2945;DHT22;1482;51.398;7.128;2024-02-26T04:33:37;4.90;99.90
2945;DHT22;1482;51.398;7.128;2024-02-26T04:36:03;4.90;99.90
2945;DHT22;1482;51.398;7.128;2024-02-26T04:38:29;5.00;99.90
2945;DHT22;1482;51.398;7.128;2024-02-26T04:40:54;4.90;99.90
2945;DHT22;1482;51.398;7.128;2024-02-26T04:43:20;4.90;99.90
2945;DHT22;1482;51.398;7.128;2024-02-26T04:45:45;5.00;99.90
2945;DHT22;1482;51.398;7.128;2024-02-26T04:48:11;5.00;99.90
2945;DHT22;1482;51.398;7.128;2024-02-26T04:50:36;5.10;99.90
2945;DHT22;1482;51.398;7.128;2024-02-26T04:53:02;5.20;99.90
2945;DHT22;1482;51.398;7.128;2024-02-26T04:55:28;5.20;99.90
2945;DHT22;1482;51.398;7.128;2024-02-26T04:57:53;5.20;99.90
2945;DHT22;1482;51.398;7.128;2024-02-26T05:00:19;5.20;99.90
2945;DHT22;1482;51.398;7.128;2024-02-26T05:02:45;5.20;99.90
2945;DHT22;1482;51.398;7.128;2024-02-26T05:05:11;5.20;99.90
2945;DHT22;1482;51.398;7.128;2024-02-26T05:07:41;5.20;99.90
2945;DHT22;1482;51.398;7.128;2024-02-26T05:10:08;5.20;99.90
2945;DHT22;1482;51.398;7.128;2024-02-26T05:12:33;5.10;99.90
2945;DHT22;1482;51.398;7.128;2024-02-26T05:15:01;5.10;99.90
2945;DHT22;1482;51.398;7.128;2024-02-26T05:17:27;5.00;99.90
2945;DHT22;1482;51.398;7.128;2024-02-26T05:19:52;5.10;99.90
2945;DHT22;1482;51.398;7.128;2024-02-26T05:22:18;4.90;99.90
2945;DHT22;1482;51.398;7.128;2024-02-26T05:24:43;4.70;99.90
2945;DHT22;1482;51.398;7.128;2024-02-26T05:27:09;4.60;1.00
2945;DHT22;1482;51.398;7.128;2024-02-26T05:29:35;4.80;1.00
2945;DHT22;1482;51.398;7.128;2024-02-26T05:32:00;4.80;1.00
2945;DHT22;1482;51.398;7.128;2024-02-26T05:34:26;4.90;1.00
2945;DHT22;1482;51.398;7.128;2024-02-26T05:36:51;4.80;1.00
2945;DHT22;1482;51.398;7.128;2024-02-26T05:39:17;4.70;1.00
2945;DHT22;1482;51.398;7.128;2024-02-26T05:41:42;4.70;1.00
2945;DHT22;1482;51.398;7.128;2024-02-26T05:44:08;4.60;1.00
2945;DHT22;1482;51.398;7.128;2024-02-26T05:46:35;4.50;1.00
2945;DHT22;1482;51.398;7.128;2024-02-26T05:49:01;4.60;1.00
2945;DHT22;1482;51.398;7.128;2024-02-26T05:51:26;4.60;1.00
2945;DHT22;1482;51.398;7.128;2024-02-26T05:53:52;4.70;1.00
2945;DHT22;1482;51.398;7.128;2024-02-26T05:56:21;4.70;1.00
2945;DHT22;1482;51.398;7.128;2024-02-26T05:58:47;4.70;1.00
2945;DHT22;1482;51.398;7.128;2024-02-26T06:01:13;4.80;1.00
2945;DHT22;1482;51.398;7.128;2024-02-26T06:03:42;4.80;1.00
2945;DHT22;1482;51.398;7.128;2024-02-26T06:06:08;4.90;1.00
2945;DHT22;1482;51.398;7.128;2024-02-26T06:08:33;4.80;1.00
2945;DHT22;1482;51.398;7.128;2024-02-26T06:10:59;4.80;1.00
2945;DHT22;1482;51.398;7.128;2024-02-26T06:13:24;4.80;1.00
2945;DHT22;1482;51.398;7.128;2024-02-26T06:15:50;4.70;1.00
2945;DHT22;1482;51.398;7.128;2024-02-26T06:18:16;4.70;1.00
2945;DHT22;1482;51.398;7.128;2024-02-26T06:20:41;4.70;1.00
2945;DHT22;1482;51.398;7.128;2024-02-26T06:23:07;4.70;1.00
2945;DHT22;1482;51.398;7.128;2024-02-26T06:25:32;4.80;1.00
2945;DHT22;1482;51.398;7.128;2024-02-26T06:27:58;4.70;1.00
2945;DHT22;1482;51.398;7.128;2024-02-26T06:30:23;4.70;1.00
2945;DHT22;1482;51.398;7.128;2024-02-26T06:32:49;4.70;1.00
2945;DHT22;1482;51.398;7.128;2024-02-26T06:35:14;4.60;1.00
2945;DHT22;1482;51.398;7.128;2024-02-26T06:37:40;4.70;49.00
2945;DHT22;1482;51.398;7.128;2024-02-26T06:40:06;4.70;1.00
2945;DHT22;1482;51.398;7.128;2024-02-26T06:42:32;4.70;14.00
2945;DHT22;1482;51.398;7.128;2024-02-26T06:44:58;4.80;99.90
2945;DHT22;1482;51.398;7.128;2024-02-26T06:47:24;4.80;1.00
2945;DHT22;1482;51.398;7.128;2024-02-26T06:49:49;4.80;1.00
2945;DHT22;1482;51.398;7.128;2024-02-26T06:52:15;4.80;1.00
2945;DHT22;1482;51.398;7.128;2024-02-26T06:54:40;4.80;1.00
2945;DHT22;1482;51.398;7.128;2024-02-26T06:57:06;4.90;1.00
2945;DHT22;1482;51.398;7.128;2024-02-26T06:59:32;4.90;72.90
2945;DHT22;1482;51.398;7.128;2024-02-26T07:01:57;4.90;1.00
2945;DHT22;1482;51.398;7.128;2024-02-26T07:04:23;5.10;1.00
2945;DHT22;1482;51.398;7.128;2024-02-26T07:06:48;5.00;1.00
2945;DHT22;1482;51.398;7.128;2024-02-26T07:09:14;5.00;1.00
2945;DHT22;1482;51.398;7.128;2024-02-26T07:11:39;5.00;1.00
2945;DHT22;1482;51.398;7.128;2024-02-26T07:14:09;4.90;1.00
2945;DHT22;1482;51.398;7.128;2024-02-26T07:16:35;4.90;1.00
2945;DHT22;1482;51.398;7.128;2024-02-26T07:19:00;4.90;1.00
2945;DHT22;1482;51.398;7.128;2024-02-26T07:21:26;5.00;1.00
2945;DHT22;1482;51.398;7.128;2024-02-26T07:23:52;5.00;1.00
2945;DHT22;1482;51.398;7.128;2024-02-26T07:26:17;5.00;1.00
2945;DHT22;1482;51.398;7.128;2024-02-26T07:28:44;5.00;1.00
2945;DHT22;1482;51.398;7.128;2024-02-26T07:31:10;5.10;1.00
2945;DHT22;1482;51.398;7.128;2024-02-26T07:33:35;5.10;1.00
2945;DHT22;1482;51.398;7.128;2024-02-26T07:36:01;5.10;1.00
2945;DHT22;1482;51.398;7.128;2024-02-26T07:38:27;5.00;1.00
2945;DHT22;1482;51.398;7.128;2024-02-26T07:40:53;5.10;1.00
2945;DHT22;1482;51.398;7.128;2024-02-26T07:43:18;5.10;1.00
2945;DHT22;1482;51.398;7.128;2024-02-26T07:45:44;5.10;3.20
2945;DHT22;1482;51.398;7.128;2024-02-26T07:48:09;5.20;28.00
2945;DHT22;1482;51.398;7.128;2024-02-26T07:50:35;5.00;1.00
2945;DHT22;1482;51.398;7.128;2024-02-26T07:53:00;5.20;89.70
2945;DHT22;1482;51.398;7.128;2024-02-26T07:55:26;5.10;30.40
2945;DHT22;1482;51.398;7.128;2024-02-26T07:57:51;5.10;99.90
2945;DHT22;1482;51.398;7.128;2024-02-26T08:00:17;5.10;99.90
2945;DHT22;1482;51.398;7.128;2024-02-26T08:02:43;5.20;99.90
2945;DHT22;1482;51.398;7.128;2024-02-26T08:05:09;5.10;75.30
2945;DHT22;1482;51.398;7.128;2024-02-26T08:07:35;5.10;99.90
2945;DHT22;1482;51.398;7.128;2024-02-26T08:10:00;5.10;99.90
2945;DHT22;1482;51.398;7.128;2024-02-26T08:12:26;5.30;99.90
2945;DHT22;1482;51.398;7.128;2024-02-26T08:14:51;5.20;99.90
2945;DHT22;1482;51.398;7.128;2024-02-26T08:17:17;5.20;93.40
2945;DHT22;1482;51.398;7.128;2024-02-26T08:19:42;5.00;55.50
2945;DHT22;1482;51.398;7.128;2024-02-26T08:22:08;5.00;99.90
2945;DHT22;1482;51.398;7.128;2024-02-26T08:24:35;5.10;99.90
2945;DHT22;1482;51.398;7.128;2024-02-26T08:27:01;5.20;99.90
2945;DHT22;1482;51.398;7.128;2024-02-26T08:29:26;5.20;99.90
2945;DHT22;1482;51.398;7.128;2024-02-26T08:31:52;5.20;99.90
2945;DHT22;1482;51.398;7.128;2024-02-26T08:34:17;5.20;99.90
2945;DHT22;1482;51.398;7.128;2024-02-26T08:36:43;5.10;99.90
2945;DHT22;1482;51.398;7.128;2024-02-26T08:39:09;5.10;99.90
2945;DHT22;1482;51.398;7.128;2024-02-26T08:41:36;5.20;1.00
2945;DHT22;1482;51.398;7.128;2024-02-26T08:44:01;5.20;1.00
2945;DHT22;1482;51.398;7.128;2024-02-26T08:46:27;5.10;1.00
2945;DHT22;1482;51.398;7.128;2024-02-26T08:48:52;5.10;1.00
2945;DHT22;1482;51.398;7.128;2024-02-26T08:51:18;5.20;2.50
2945;DHT22;1482;51.398;7.128;2024-02-26T08:53:43;5.30;1.00
2945;DHT22;1482;51.398;7.128;2024-02-26T08:56:09;5.30;1.00
2945;DHT22;1482;51.398;7.128;2024-02-26T08:58:34;5.30;99.90
2945;DHT22;1482;51.398;7.128;2024-02-26T09:01:00;5.30;99.90
2945;DHT22;1482;51.398;7.128;2024-02-26T09:03:25;5.30;1.00
2945;DHT22;1482;51.398;7.128;2024-02-26T09:05:51;5.20;99.90
2945;DHT22;1482;51.398;7.128;2024-02-26T09:08:17;5.30;1.00
2945;DHT22;1482;51.398;7.128;2024-02-26T09:10:42;5.40;1.00
2945;DHT22;1482;51.398;7.128;2024-02-26T09:13:08;5.40;99.90
2945;DHT22;1482;51.398;7.128;2024-02-26T09:15:33;5.40;99.90
2945;DHT22;1482;51.398;7.128;2024-02-26T09:17:59;5.30;99.90
2945;DHT22;1482;51.398;7.128;2024-02-26T09:20:24;5.40;99.90
2945;DHT22;1482;51.398;7.128;2024-02-26T09:22:50;5.40;99.90
2945;DHT22;1482;51.398;7.128;2024-02-26T09:25:17;5.30;26.20
2945;DHT22;1482;51.398;7.128;2024-02-26T09:27:43;5.40;99.90
2945;DHT22;1482;51.398;7.128;2024-02-26T09:30:10;5.40;99.90
2945;DHT22;1482;51.398;7.128;2024-02-26T09:32:36;5.50;99.90
2945;DHT22;1482;51.398;7.128;2024-02-26T09:35:01;5.50;1.00
2945;DHT22;1482;51.398;7.128;2024-02-26T09:37:27;5.50;30.90
2945;DHT22;1482;51.398;7.128;2024-02-26T09:39:53;5.60;1.00
2945;DHT22;1482;51.398;7.128;2024-02-26T09:42:19;5.60;1.00
2945;DHT22;1482;51.398;7.128;2024-02-26T09:44:45;5.60;1.00
2945;DHT22;1482;51.398;7.128;2024-02-26T09:47:12;5.60;1.00
2945;DHT22;1482;51.398;7.128;2024-02-26T09:49:42;5.60;1.00
2945;DHT22;1482;51.398;7.128;2024-02-26T09:52:08;5.60;1.00
2945;DHT22;1482;51.398;7.128;2024-02-26T09:54:35;5.50;1.00
2945;DHT22;1482;51.398;7.128;2024-02-26T09:57:03;5.60;1.00
2945;DHT22;1482;51.398;7.128;2024-02-26T09:59:38;5.70;1.00
2945;DHT22;1482;51.398;7.128;2024-02-26T10:02:04;5.80;1.00
2945;DHT22;1482;51.398;7.128;2024-02-26T10:04:30;5.70;1.00
2945;DHT22;1482;51.398;7.128;2024-02-26T10:06:56;5.70;1.00
2945;DHT22;1482;51.398;7.128;2024-02-26T10:09:25;5.80;1.00
2945;DHT22;1482;51.398;7.128;2024-02-26T10:11:51;5.80;1.00
2945;DHT22;1482;51.398;7.128;2024-02-26T10:14:16;5.90;1.00
2945;DHT22;1482;51.398;7.128;2024-02-26T10:16:42;6.00;1.00
2945;DHT22;1482;51.398;7.128;2024-02-26T10:19:08;6.00;1.00
2945;DHT22;1482;51.398;7.128;2024-02-26T10:21:35;6.10;1.00
2945;DHT22;1482;51.398;7.128;2024-02-26T10:24:01;6.20;1.00
2945;DHT22;1482;51.398;7.128;2024-02-26T10:26:27;6.10;1.00
2945;DHT22;1482;51.398;7.128;2024-02-26T10:28:52;6.10;1.00
2945;DHT22;1482;51.398;7.128;2024-02-26T10:31:18;6.10;1.00
2945;DHT22;1482;51.398;7.128;2024-02-26T10:33:44;6.20;1.00
2945;DHT22;1482;51.398;7.128;2024-02-26T10:36:10;6.10;1.00
2945;DHT22;1482;51.398;7.128;2024-02-26T10:38:37;6.10;1.00
2945;DHT22;1482;51.398;7.128;2024-02-26T10:41:04;6.10;1.00
2945;DHT22;1482;51.398;7.128;2024-02-26T10:43:29;6.00;1.00
2945;DHT22;1482;51.398;7.128;2024-02-26T10:45:55;6.00;1.00
2945;DHT22;1482;51.398;7.128;2024-02-26T10:48:21;6.00;1.00
2945;DHT22;1482;51.398;7.128;2024-02-26T10:50:48;6.00;1.00
2945;DHT22;1482;51.398;7.128;2024-02-26T10:53:17;6.20;1.00
2945;DHT22;1482;51.398;7.128;2024-02-26T10:56:08;6.30;1.00
2945;DHT22;1482;51.398;7.128;2024-02-26T10:58:33;6.30;1.00
2945;DHT22;1482;51.398;7.128;2024-02-26T11:00:59;6.30;1.00
2945;DHT22;1482;51.398;7.128;2024-02-26T11:03:25;6.40;1.00
2945;DHT22;1482;51.398;7.128;2024-02-26T11:05:51;6.50;1.00
2945;DHT22;1482;51.398;7.128;2024-02-26T11:08:19;6.50;1.00
2945;DHT22;1482;51.398;7.128;2024-02-26T11:10:47;6.60;99.90
2945;DHT22;1482;51.398;7.128;2024-02-26T11:13:15;6.60;99.90
2945;DHT22;1482;51.398;7.128;2024-02-26T11:15:43;6.60;99.90
2945;DHT22;1482;51.398;7.128;2024-02-26T11:18:09;6.70;99.90
2945;DHT22;1482;51.398;7.128;2024-02-26T11:20:38;6.70;99.90
2945;DHT22;1482;51.398;7.128;2024-02-26T11:23:07;6.80;99.90
2945;DHT22;1482;51.398;7.128;2024-02-26T11:25:32;6.70;99.90
2945;DHT22;1482;51.398;7.128;2024-02-26T11:28:01;6.80;99.90
2945;DHT22;1482;51.398;7.128;2024-02-26T11:30:31;6.90;99.90
2945;DHT22;1482;51.398;7.128;2024-02-26T11:32:58;7.00;99.90
2945;DHT22;1482;51.398;7.128;2024-02-26T11:35:24;7.10;99.90
2945;DHT22;1482;51.398;7.128;2024-02-26T11:37:56;7.10;99.90
2945;DHT22;1482;51.398;7.128;2024-02-26T11:40:25;7.20;99.90
2945;DHT22;1482;51.398;7.128;2024-02-26T11:42:51;7.20;99.90
2945;DHT22;1482;51.398;7.128;2024-02-26T11:48:13;7.30;99.90
2945;DHT22;1482;51.398;7.128;2024-02-26T11:50:41;7.40;99.90
2945;DHT22;1482;51.398;7.128;2024-02-26T11:53:29;7.60;99.90
2945;DHT22;1482;51.398;7.128;2024-02-26T11:59:00;7.90;99.90
2945;DHT22;1482;51.398;7.128;2024-02-26T12:01:42;8.00;99.90
2945;DHT22;1482;51.398;7.128;2024-02-26T12:04:13;8.10;99.90
2945;DHT22;1482;51.398;7.128;2024-02-26T12:06:45;8.20;99.90
2945;DHT22;1482;51.398;7.128;2024-02-26T12:09:11;8.30;99.90
2945;DHT22;1482;51.398;7.128;2024-02-26T12:11:39;8.40;99.90
2945;DHT22;1482;51.398;7.128;2024-02-26T12:14:07;8.50;99.90
2945;DHT22;1482;51.398;7.128;2024-02-26T12:19:06;8.60;99.90
2945;DHT22;1482;51.398;7.128;2024-02-26T12:21:36;8.60;99.90
2945;DHT22;1482;51.398;7.128;2024-02-26T12:24:12;8.70;99.90
2945;DHT22;1482;51.398;7.128;2024-02-26T12:26:39;8.70;99.90
2945;DHT22;1482;51.398;7.128;2024-02-26T12:29:04;8.80;99.90
2945;DHT22;1482;51.398;7.128;2024-02-26T12:31:31;8.70;99.90
2945;DHT22;1482;51.398;7.128;2024-02-26T12:33:57;8.60;99.90
2945;DHT22;1482;51.398;7.128;2024-02-26T12:36:23;8.60;99.90
2945;DHT22;1482;51.398;7.128;2024-02-26T12:38:50;8.60;99.90
2945;DHT22;1482;51.398;7.128;2024-02-26T12:41:16;8.70;99.90
2945;DHT22;1482;51.398;7.128;2024-02-26T12:43:42;8.80;99.90
2945;DHT22;1482;51.398;7.128;2024-02-26T12:46:07;8.60;99.90
2945;DHT22;1482;51.398;7.128;2024-02-26T12:48:33;8.50;99.90
2945;DHT22;1482;51.398;7.128;2024-02-26T12:50:59;8.40;99.90
2945;DHT22;1482;51.398;7.128;2024-02-26T12:53:26;8.50;99.90
2945;DHT22;1482;51.398;7.128;2024-02-26T12:55:55;8.20;99.90
2945;DHT22;1482;51.398;7.128;2024-02-26T12:58:21;8.40;99.90
2945;DHT22;1482;51.398;7.128;2024-02-26T13:00:51;8.40;99.90
2945;DHT22;1482;51.398;7.128;2024-02-26T13:03:17;8.40;99.90
2945;DHT22;1482;51.398;7.128;2024-02-26T13:05:43;8.50;99.90
2945;DHT22;1482;51.398;7.128;2024-02-26T13:08:09;8.40;99.90
2945;DHT22;1482;51.398;7.128;2024-02-26T13:10:34;8.50;99.90
2945;DHT22;1482;51.398;7.128;2024-02-26T13:13:02;8.40;99.90
2945;DHT22;1482;51.398;7.128;2024-02-26T13:15:28;8.30;99.90
2945;DHT22;1482;51.398;7.128;2024-02-26T13:17:53;8.40;99.90
2945;DHT22;1482;51.398;7.128;2024-02-26T13:20:29;8.40;99.90
2945;DHT22;1482;51.398;7.128;2024-02-26T13:23:04;8.40;99.90
2945;DHT22;1482;51.398;7.128;2024-02-26T13:25:31;8.40;99.90
2945;DHT22;1482;51.398;7.128;2024-02-26T13:28:09;8.40;99.90
2945;DHT22;1482;51.398;7.128;2024-02-26T13:30:37;8.50;99.90
2945;DHT22;1482;51.398;7.128;2024-02-26T13:33:10;8.50;99.90
2945;DHT22;1482;51.398;7.128;2024-02-26T13:35:36;8.60;99.90
2945;DHT22;1482;51.398;7.128;2024-02-26T13:38:04;8.70;99.90
2945;DHT22;1482;51.398;7.128;2024-02-26T13:40:30;8.70;99.90
2945;DHT22;1482;51.398;7.128;2024-02-26T13:42:55;8.60;99.90
2945;DHT22;1482;51.398;7.128;2024-02-26T13:45:21;8.70;99.90
2945;DHT22;1482;51.398;7.128;2024-02-26T13:47:46;8.70;91.20
2945;DHT22;1482;51.398;7.128;2024-02-26T13:50:12;8.60;90.00
2945;DHT22;1482;51.398;7.128;2024-02-26T13:52:37;8.50;92.10
2945;DHT22;1482;51.398;7.128;2024-02-26T13:55:03;8.40;98.20
2945;DHT22;1482;51.398;7.128;2024-02-26T13:57:29;8.50;99.90
2945;DHT22;1482;51.398;7.128;2024-02-26T13:59:55;8.40;96.30
2945;DHT22;1482;51.398;7.128;2024-02-26T14:02:21;8.50;94.30
2945;DHT22;1482;51.398;7.128;2024-02-26T14:04:46;8.50;88.20
2945;DHT22;1482;51.398;7.128;2024-02-26T14:07:12;8.50;98.40
2945;DHT22;1482;51.398;7.128;2024-02-26T14:09:38;8.60;86.80
2945;DHT22;1482;51.398;7.128;2024-02-26T14:12:04;8.40;72.10
2945;DHT22;1482;51.398;7.128;2024-02-26T14:14:30;8.30;88.20
2945;DHT22;1482;51.398;7.128;2024-02-26T14:16:58;8.30;94.50
2945;DHT22;1482;51.398;7.128;2024-02-26T14:19:24;8.40;85.00
2945;DHT22;1482;51.398;7.128;2024-02-26T14:21:49;8.40;93.00
2945;DHT22;1482;51.398;7.128;2024-02-26T14:24:15;8.30;92.60
2945;DHT22;1482;51.398;7.128;2024-02-26T14:26:41;8.20;83.80
2945;DHT22;1482;51.398;7.128;2024-02-26T14:29:07;8.10;88.60
2945;DHT22;1482;51.398;7.128;2024-02-26T14:31:33;8.10;77.40
2945;DHT22;1482;51.398;7.128;2024-02-26T14:33:59;8.00;92.20
2945;DHT22;1482;51.398;7.128;2024-02-26T14:36:24;8.10;88.90
2945;DHT22;1482;51.398;7.128;2024-02-26T14:38:50;8.20;97.40
2945;DHT22;1482;51.398;7.128;2024-02-26T14:41:16;8.10;90.50
2945;DHT22;1482;51.398;7.128;2024-02-26T14:43:42;8.20;97.80
2945;DHT22;1482;51.398;7.128;2024-02-26T14:46:07;8.30;95.90
2945;DHT22;1482;51.398;7.128;2024-02-26T14:48:33;8.20;99.90
2945;DHT22;1482;51.398;7.128;2024-02-26T14:50:59;8.40;96.60
2945;DHT22;1482;51.398;7.128;2024-02-26T14:53:25;8.40;92.90
2945;DHT22;1482;51.398;7.128;2024-02-26T14:55:51;8.40;93.00
2945;DHT22;1482;51.398;7.128;2024-02-26T14:58:16;8.40;92.90
2945;DHT22;1482;51.398;7.128;2024-02-26T15:00:42;8.40;94.60
2945;DHT22;1482;51.398;7.128;2024-02-26T15:03:08;8.40;98.30
2945;DHT22;1482;51.398;7.128;2024-02-26T15:05:34;8.40;92.20
2945;DHT22;1482;51.398;7.128;2024-02-26T15:07:59;8.40;81.50
2945;DHT22;1482;51.398;7.128;2024-02-26T15:10:25;8.30;71.60
2945;DHT22;1482;51.398;7.128;2024-02-26T15:12:51;8.10;78.00
2945;DHT22;1482;51.398;7.128;2024-02-26T15:15:20;8.20;80.10
2945;DHT22;1482;51.398;7.128;2024-02-26T15:17:46;8.30;77.10
2945;DHT22;1482;51.398;7.128;2024-02-26T15:20:11;8.30;74.60
2945;DHT22;1482;51.398;7.128;2024-02-26T15:22:37;8.40;76.80
2945;DHT22;1482;51.398;7.128;2024-02-26T15:25:03;8.40;70.80
2945;DHT22;1482;51.398;7.128;2024-02-26T15:27:29;8.40;83.60
2945;DHT22;1482;51.398;7.128;2024-02-26T15:29:54;8.50;59.00
2945;DHT22;1482;51.398;7.128;2024-02-26T15:32:24;8.50;57.40
2945;DHT22;1482;51.398;7.128;2024-02-26T15:34:50;8.50;46.40
2945;DHT22;1482;51.398;7.128;2024-02-26T15:37:16;8.40;48.80
2945;DHT22;1482;51.398;7.128;2024-02-26T15:39:41;8.20;46.00
2945;DHT22;1482;51.398;7.128;2024-02-26T15:42:07;8.20;42.90
2945;DHT22;1482;51.398;7.128;2024-02-26T15:44:32;8.10;42.80
2945;DHT22;1482;51.398;7.128;2024-02-26T15:46:58;8.00;46.90
2945;DHT22;1482;51.398;7.128;2024-02-26T15:49:24;8.00;48.60
2945;DHT22;1482;51.398;7.128;2024-02-26T15:51:50;7.80;43.80
2945;DHT22;1482;51.398;7.128;2024-02-26T15:54:15;8.00;51.50
2945;DHT22;1482;51.398;7.128;2024-02-26T15:56:41;7.90;47.60
2945;DHT22;1482;51.398;7.128;2024-02-26T15:59:10;7.90;52.10
2945;DHT22;1482;51.398;7.128;2024-02-26T16:01:35;7.80;45.60
2945;DHT22;1482;51.398;7.128;2024-02-26T16:04:01;7.90;46.30
2945;DHT22;1482;51.398;7.128;2024-02-26T16:06:46;7.70;47.20
2945;DHT22;1482;51.398;7.128;2024-02-26T16:09:12;7.70;44.60
2945;DHT22;1482;51.398;7.128;2024-02-26T16:11:38;7.70;48.60
2945;DHT22;1482;51.398;7.128;2024-02-26T16:16:59;7.60;47.60
2945;DHT22;1482;51.398;7.128;2024-02-26T16:19:26;7.50;47.10
2945;DHT22;1482;51.398;7.128;2024-02-26T16:21:52;7.60;53.10
2945;DHT22;1482;51.398;7.128;2024-02-26T16:24:18;7.50;51.30
2945;DHT22;1482;51.398;7.128;2024-02-26T16:26:44;7.50;57.30
2945;DHT22;1482;51.398;7.128;2024-02-26T16:29:09;7.60;53.60